Time;durP1;ratioP1;P1;durP2;ratioP2;P2;SDS_P1;SDS_P2;PMS_P1;PMS_P2;Temp;Humidity;BMP_temperature;BMP_pressure;BME280_temperature;BME280_humidity;BME280_pressure;Samples;Min_cycle;Max_cycle;Signal;HPM_P1;HPM_P2
2022/06/04 00:00:34;;;;;;;5.68;1.98;;;11.40;99.90;;;;;;5072360;28;20120;-72
2022/06/04 00:02:59;;;;;;;2.47;1.58;;;11.30;99.90;;;;;;5072442;28;20041;-72
2022/06/04 00:05:28;;;;;;;2.67;1.50;;;11.30;99.90;;;;;;5055758;28;20077;-71
2022/06/04 00:07:55;;;;;;;3.50;2.10;;;11.50;99.90;;;;;;5055778;28;20067;-71
2022/06/04 00:15:53;;;;;;;7.53;2.28;;;11.60;99.90;;;;;;5072257;28;20059;-72
2022/06/04 00:18:21;;;;;;;1.83;1.52;;;11.30;99.90;;;;;;5072454;28;20470;-72
2022/06/04 00:20:47;;;;;;;4.75;2.03;;;11.30;99.90;;;;;;5072113;28;20032;-72
2022/06/04 00:23:14;;;;;;;3.28;1.50;;;11.20;99.90;;;;;;5072001;28;20492;-72
2022/06/04 00:25:47;;;;;;;4.07;1.90;;;11.10;99.90;;;;;;5072027;28;20123;-72
2022/06/04 00:28:14;;;;;;;5.07;2.22;;;11.20;99.90;;;;;;5072008;28;20071;-72
2022/06/04 00:30:40;;;;;;;7.32;1.92;;;11.20;99.90;;;;;;5055353;28;20398;-72
2022/06/04 00:33:07;;;;;;;5.05;1.90;;;11.20;99.90;;;;;;5071925;28;20044;-72
2022/06/04 00:35:34;;;;;;;4.10;2.40;;;11.20;99.90;;;;;;5071919;28;20067;-71
2022/06/04 00:38:01;;;;;;;3.20;1.90;;;11.20;99.90;;;;;;5055697;28;20040;-72
2022/06/04 00:40:32;;;;;;;5.72;2.30;;;11.20;99.90;;;;;;5071762;28;20052;-72
2022/06/04 00:42:58;;;;;;;3.00;2.22;;;11.20;99.90;;;;;;5071789;28;20028;-72
2022/06/04 00:45:35;;;;;;;5.68;2.13;;;11.20;99.90;;;;;;5072080;28;20080;-72
2022/06/04 00:48:05;;;;;;;3.92;2.00;;;11.20;99.90;;;;;;5072112;28;20143;-72
2022/06/04 00:50:33;;;;;;;2.83;1.83;;;11.20;99.90;;;;;;5055025;28;20123;-72
2022/06/04 00:53:02;;;;;;;7.32;2.45;;;11.20;99.90;;;;;;5072041;28;20048;-73
2022/06/04 00:55:42;;;;;;;3.20;2.10;;;11.10;99.90;;;;;;5071725;28;20118;-72
2022/06/04 00:58:56;;;;;;;2.72;1.58;;;11.10;99.90;;;;;;5071666;28;20047;-72
2022/06/04 01:01:32;;;;;;;3.60;2.50;;;11.10;99.90;;;;;;5053656;28;20152;-72
2022/06/04 01:04:47;;;;;;;3.22;2.45;;;10.90;99.90;;;;;;5071607;28;20411;-72
2022/06/04 01:07:14;;;;;;;6.20;3.17;;;11.00;99.90;;;;;;5071450;28;20519;-72
2022/06/04 01:10:07;;;;;;;3.33;2.00;;;11.00;99.90;;;;;;5071596;28;20088;-71
2022/06/04 01:12:53;;;;;;;5.05;2.35;;;11.00;99.90;;;;;;5054750;28;20079;-72
2022/06/04 01:15:25;;;;;;;5.63;2.20;;;11.00;99.90;;;;;;5071481;28;20048;-72
2022/06/04 01:18:17;;;;;;;4.03;2.65;;;11.00;99.90;;;;;;5071461;28;20045;-72
2022/06/04 01:21:14;;;;;;;5.80;2.70;;;11.00;99.90;;;;;;5054638;28;20058;-72
2022/06/04 01:24:18;;;;;;;5.72;2.67;;;11.00;99.90;;;;;;5071438;28;20055;-72
2022/06/04 01:27:09;;;;;;;5.88;1.92;;;11.00;99.90;;;;;;5071666;28;20051;-73
2022/06/04 01:29:39;;;;;;;;;;;11.00;99.90;;;;;;5071986;28;20032;-72
2022/06/04 01:32:22;;;;;;;4.82;2.22;;;11.00;99.90;;;;;;5071567;28;19942;-72
2022/06/04 01:35:01;;;;;;;5.63;2.05;;;11.00;99.90;;;;;;5071251;28;20099;-72
2022/06/04 01:37:38;;;;;;;7.55;2.80;;;11.00;99.90;;;;;;5054561;28;20048;-72
2022/06/04 01:42:56;;;;;;;3.88;2.55;;;11.00;99.90;;;;;;5071180;28;20059;-72
2022/06/04 01:45:26;;;;;;;3.05;2.45;;;10.90;99.90;;;;;;5071112;28;20040;-72
2022/06/04 01:47:53;;;;;;;3.90;2.35;;;11.00;99.90;;;;;;5054465;28;20044;-73
2022/06/04 01:50:31;;;;;;;7.13;1.92;;;10.80;99.90;;;;;;5071215;28;20442;-72
2022/06/04 01:52:59;;;;;;;3.72;2.53;;;10.90;99.90;;;;;;5071426;28;20053;-72
2022/06/04 01:55:42;;;;;;;5.32;2.63;;;10.90;99.90;;;;;;5071136;28;20052;-72
2022/06/04 01:58:17;;;;;;;4.18;2.50;;;10.90;99.90;;;;;;5071107;28;20051;-72
2022/06/04 02:00:49;;;;;;;4.95;2.85;;;10.80;99.90;;;;;;5071456;28;20036;-70
2022/06/04 02:03:19;;;;;;;4.20;2.72;;;10.80;99.90;;;;;;5054674;28;20476;-70
2022/06/04 02:05:52;;;;;;;7.72;3.22;;;11.10;99.90;;;;;;5070950;28;20037;-70
2022/06/04 02:08:25;;;;;;;6.32;2.30;;;10.80;99.90;;;;;;5070948;28;20036;-70
2022/06/04 02:11:15;;;;;;;7.15;3.20;;;10.80;99.90;;;;;;5070858;28;20045;-70
2022/06/04 02:13:44;;;;;;;4.13;2.80;;;10.70;99.90;;;;;;5099870;28;20131;-70
2022/06/04 02:16:20;;;;;;;6.03;2.47;;;10.70;99.90;;;;;;5070926;28;20036;-70
2022/06/04 02:18:47;;;;;;;3.63;2.78;;;10.70;99.90;;;;;;5072735;28;20173;-70
2022/06/04 02:21:15;;;;;;;7.05;3.08;;;10.70;99.90;;;;;;5074284;28;20557;-70
2022/06/04 02:23:40;;;;;;;5.97;3.03;;;10.60;99.90;;;;;;5074397;28;20048;-70
2022/06/04 02:26:06;;;;;;;4.75;2.47;;;10.60;99.90;;;;;;5074727;28;20043;-70
2022/06/04 02:28:32;;;;;;;8.10;3.33;;;10.60;99.90;;;;;;5074272;28;20411;-70
2022/06/04 02:30:58;;;;;;;4.78;3.33;;;11.20;99.90;;;;;;5074244;28;20033;-70
2022/06/04 02:33:32;;;;;;;7.38;2.58;;;10.80;99.90;;;;;;5074422;28;20462;-70
2022/06/04 02:36:00;;;;;;;6.93;2.90;;;10.60;99.90;;;;;;5074181;28;20044;-70
2022/06/04 02:38:54;;;;;;;8.85;2.90;;;10.60;99.90;;;;;;5074196;28;20040;-70
2022/06/04 02:41:27;;;;;;;7.03;3.40;;;10.80;99.90;;;;;;5074016;28;20044;-70
2022/06/04 02:44:02;;;;;;;5.10;3.28;;;10.50;99.90;;;;;;5074336;28;20381;-70
2022/06/04 02:46:41;;;;;;;5.70;3.83;;;10.50;99.90;;;;;;5073982;28;20124;-70
2022/06/04 02:49:20;;;;;;;6.05;2.72;;;10.50;99.90;;;;;;5074006;28;20119;-70
2022/06/04 02:51:50;;;;;;;7.53;3.30;;;10.50;99.90;;;;;;5074188;28;20162;-70
2022/06/04 02:54:29;;;;;;;6.07;3.10;;;10.50;99.90;;;;;;5074272;28;20040;-70
2022/06/04 02:56:57;;;;;;;6.57;3.45;;;10.50;99.90;;;;;;5074097;28;20059;-70
2022/06/04 02:59:25;;;;;;;5.30;3.45;;;10.50;99.90;;;;;;5073719;28;20408;-70
2022/06/04 03:01:53;;;;;;;9.73;2.85;;;10.40;99.90;;;;;;5073552;28;20047;-70
2022/06/04 03:04:19;;;;;;;6.38;3.47;;;10.60;99.90;;;;;;5073663;28;20044;-70
2022/06/04 03:06:45;;;;;;;5.03;2.85;;;10.40;99.90;;;;;;5056864;28;20373;-70
2022/06/04 03:09:15;;;;;;;5.38;3.38;;;10.50;99.90;;;;;;5107530;28;20048;-70
2022/06/04 03:11:46;;;;;;;7.88;3.33;;;11.30;99.90;;;;;;5073682;28;20509;-70
2022/06/04 03:14:14;;;;;;;9.65;3.72;;;10.40;99.90;;;;;;5073429;28;20032;-70
2022/06/04 03:16:42;;;;;;;8.32;3.75;;;10.40;99.90;;;;;;5056904;28;20045;-70
2022/06/04 03:19:09;;;;;;;6.40;3.40;;;10.70;99.90;;;;;;5073299;28;20041;-70
2022/06/04 03:21:39;;;;;;;6.13;3.22;;;10.30;99.90;;;;;;5073204;28;20052;-70
2022/06/04 03:24:07;;;;;;;4.63;2.95;;;10.30;99.90;;;;;;5073561;28;20499;-70
2022/06/04 03:26:32;;;;;;;6.20;3.00;;;10.30;99.90;;;;;;5073135;28;20044;-70
2022/06/04 03:28:58;;;;;;;9.10;3.03;;;10.30;99.90;;;;;;5039568;28;20048;-71
2022/06/04 03:31:27;;;;;;;7.55;3.53;;;10.30;99.90;;;;;;5072468;28;20385;-70
2022/06/04 03:33:55;;;;;;;8.13;2.53;;;10.30;99.90;;;;;;5039700;28;20125;-70
2022/06/04 03:36:21;;;;;;;7.15;3.05;;;10.30;99.90;;;;;;5073186;28;20041;-70
2022/06/04 03:38:48;;;;;;;5.18;2.80;;;11.10;99.90;;;;;;5073003;28;20518;-70
2022/06/04 03:41:13;;;;;;;7.00;2.88;;;10.10;99.90;;;;;;5056342;28;20036;-69
2022/06/04 03:43:39;;;;;;;3.25;2.20;;;10.20;99.90;;;;;;5072857;28;20043;-70
2022/06/04 03:46:05;;;;;;;5.43;3.00;;;10.10;99.90;;;;;;5072813;28;20119;-70
2022/06/04 03:48:31;;;;;;;3.42;2.38;;;10.20;99.90;;;;;;5072757;28;20044;-70
2022/06/04 03:50:56;;;;;;;5.95;2.88;;;10.20;99.90;;;;;;5072737;28;20036;-70
2022/06/04 03:53:22;;;;;;;3.72;2.47;;;10.20;99.90;;;;;;5056122;28;20066;-70
2022/06/04 03:55:48;;;;;;;4.00;2.50;;;10.20;99.90;;;;;;5072645;28;20082;-70
2022/06/04 03:58:13;;;;;;;5.47;3.25;;;10.10;99.90;;;;;;5072616;28;20076;-69
2022/06/04 04:00:41;;;;;;;5.10;2.47;;;10.20;99.90;;;;;;5039399;28;20045;-70
2022/06/04 04:03:13;;;;;;;6.10;3.45;;;10.20;99.90;;;;;;5072721;28;20094;-70
2022/06/04 04:05:45;;;;;;;5.65;3.03;;;11.10;99.90;;;;;;5072468;28;20032;-70
2022/06/04 04:08:11;;;;;;;3.55;2.03;;;10.30;99.90;;;;;;5072390;28;20038;-70
2022/06/04 04:10:39;;;;;;;4.53;2.58;;;10.30;99.90;;;;;;5072427;28;20051;-70
2022/06/04 04:13:05;;;;;;;7.72;2.53;;;10.30;99.90;;;;;;5072269;28;20123;-70
2022/06/04 04:15:31;;;;;;;5.55;3.20;;;10.40;99.90;;;;;;5072490;28;20133;-70
2022/06/04 04:17:57;;;;;;;3.97;2.38;;;10.40;99.90;;;;;;5072164;28;20141;-70
2022/06/04 04:20:25;;;;;;;4.28;2.50;;;10.50;99.90;;;;;;5055642;28;20127;-70
2022/06/04 04:22:52;;;;;;;6.53;2.90;;;10.50;99.90;;;;;;5071856;28;20053;-70
2022/06/04 04:25:19;;;;;;;4.88;2.50;;;10.60;99.90;;;;;;5055401;28;20036;-70
2022/06/04 04:27:45;;;;;;;2.72;1.80;;;10.60;99.90;;;;;;5072010;28;20108;-70
2022/06/04 04:30:14;;;;;;;7.78;3.00;;;10.70;99.90;;;;;;5071865;28;20059;-70
2022/06/04 04:32:41;;;;;;;6.50;2.80;;;10.80;99.90;;;;;;5055288;28;20044;-70
2022/06/04 04:35:08;;;;;;;4.93;2.38;;;10.80;99.90;;;;;;5071939;28;20037;-70
2022/06/04 04:37:34;;;;;;;7.50;2.47;;;10.80;99.90;;;;;;5071823;28;20044;-70
2022/06/04 04:39:59;;;;;;;4.78;2.92;;;10.90;99.90;;;;;;5071791;28;20441;-70
2022/06/04 04:42:25;;;;;;;8.55;2.08;;;10.90;99.90;;;;;;5071573;28;20040;-70
2022/06/04 04:44:51;;;;;;;8.35;2.72;;;11.10;99.90;;;;;;5055145;28;20048;-70
2022/06/04 04:47:17;;;;;;;4.95;1.73;;;11.00;99.90;;;;;;5055086;28;20491;-70
2022/06/04 04:49:43;;;;;;;2.78;1.50;;;11.10;99.90;;;;;;5071696;28;20426;-70
2022/06/04 04:52:08;;;;;;;3.55;1.73;;;11.10;99.90;;;;;;5071821;28;20045;-70
2022/06/04 04:54:34;;;;;;;3.20;1.92;;;11.30;99.90;;;;;;5071619;28;20047;-70
2022/06/04 04:57:00;;;;;;;2.65;1.75;;;11.40;99.90;;;;;;5071827;28;20101;-71
2022/06/04 04:59:27;;;;;;;2.95;2.00;;;11.40;99.90;;;;;;5054947;28;20048;-71
2022/06/04 05:01:52;;;;;;;4.60;1.95;;;11.50;99.90;;;;;;5071520;28;20037;-70
2022/06/04 05:04:18;;;;;;;2.72;1.77;;;11.50;99.90;;;;;;5054940;28;20507;-70
2022/06/04 05:06:44;;;;;;;2.83;1.67;;;11.70;99.90;;;;;;5071524;28;20487;-71
2022/06/04 05:09:10;;;;;;;3.13;1.73;;;11.80;99.90;;;;;;5055190;28;20102;-70
2022/06/04 05:11:36;;;;;;;3.40;1.60;;;11.90;99.90;;;;;;5072837;28;20044;-70
2022/06/04 05:14:03;;;;;;;3.63;1.63;;;11.90;99.90;;;;;;5055099;28;20043;-70
2022/06/04 05:16:32;;;;;;;2.65;1.60;;;12.00;99.90;;;;;;5071510;28;20041;-70
2022/06/04 05:19:01;;;;;;;3.63;1.38;;;12.10;99.90;;;;;;5071400;28;20083;-71
2022/06/04 05:21:46;;;;;;;5.20;2.00;;;12.80;99.90;;;;;;5054847;28;20056;-70
2022/06/04 05:24:24;;;;;;;3.75;1.92;;;12.30;99.90;;;;;;5071514;28;20053;-70
2022/06/04 05:26:50;;;;;;;3.03;2.00;;;12.80;99.90;;;;;;5071662;28;20078;-70
2022/06/04 05:29:17;;;;;;;2.15;1.52;;;12.80;99.90;;;;;;5071388;28;20040;-70
2022/06/04 05:31:45;;;;;;;6.85;2.08;;;12.80;99.90;;;;;;5054722;28;20086;-71
2022/06/04 05:34:11;;;;;;;4.30;2.00;;;12.70;99.90;;;;;;5071442;28;20094;-70
2022/06/04 05:36:37;;;;;;;6.15;1.90;;;12.90;99.90;;;;;;5071198;28;20054;-70
2022/06/04 05:39:05;;;;;;;4.00;1.98;;;12.70;99.90;;;;;;5071246;28;20446;-70
2022/06/04 05:41:31;;;;;;;3.20;1.73;;;12.80;99.90;;;;;;5054632;28;20404;-71
2022/06/04 05:43:57;;;;;;;2.53;1.95;;;13.00;99.90;;;;;;5071554;28;20036;-70
2022/06/04 05:46:23;;;;;;;4.88;2.08;;;13.00;99.90;;;;;;5071435;28;20081;-70
2022/06/04 05:48:50;;;;;;;4.13;2.10;;;13.10;99.90;;;;;;5071188;28;20132;-70
2022/06/04 05:51:20;;;;;;;5.82;1.60;;;13.10;99.90;;;;;;5071428;28;20123;-71
2022/06/04 05:53:46;;;;;;;3.00;1.60;;;13.30;99.90;;;;;;5073204;28;20048;-70
2022/06/04 05:56:27;;;;;;;1.95;1.40;;;13.20;99.90;;;;;;5075202;28;20415;-70
2022/06/04 05:58:56;;;;;;;2.20;1.65;;;13.40;99.90;;;;;;5074938;28;20115;-69
2022/06/04 06:01:24;;;;;;;3.30;1.85;;;13.40;99.90;;;;;;5108680;28;20044;-70
2022/06/04 06:03:50;;;;;;;4.05;2.10;;;13.70;99.90;;;;;;5074819;28;20048;-71
2022/06/04 06:06:22;;;;;;;2.78;1.48;;;13.60;99.90;;;;;;5108652;28;20040;-70
2022/06/04 06:08:49;;;;;;;5.43;3.10;;;13.80;99.90;;;;;;5074671;28;20036;-69
2022/06/04 06:11:17;;;;;;;3.10;1.88;;;13.80;99.90;;;;;;5074654;28;20101;-70
2022/06/04 06:13:44;;;;;;;3.10;1.58;;;13.90;99.90;;;;;;5074746;28;20049;-70
2022/06/04 06:16:18;;;;;;;2.45;1.38;;;13.90;99.90;;;;;;5074907;28;20041;-72
2022/06/04 06:18:45;;;;;;;2.35;1.58;;;13.90;99.90;;;;;;5074474;28;20410;-71
2022/06/04 06:21:14;;;;;;;5.40;2.20;;;13.80;99.90;;;;;;5057723;28;20396;-71
2022/06/04 06:23:41;;;;;;;4.07;1.50;;;13.80;99.90;;;;;;5074673;28;20049;-71
2022/06/04 06:26:22;;;;;;;4.70;1.80;;;13.90;99.90;;;;;;5074624;28;20055;-71
2022/06/04 06:28:48;;;;;;;2.72;1.95;;;13.60;99.90;;;;;;5074261;28;20079;-70
2022/06/04 06:31:19;;;;;;;3.50;1.80;;;13.60;99.90;;;;;;5074250;28;20032;-70
2022/06/04 06:33:45;;;;;;;4.25;1.80;;;13.80;99.90;;;;;;5074149;28;20427;-70
2022/06/04 06:36:13;;;;;;;6.07;1.85;;;14.00;99.90;;;;;;5074130;28;20052;-70
2022/06/04 06:38:39;;;;;;;2.25;1.70;;;14.20;99.90;;;;;;5074042;28;20045;-71
2022/06/04 06:41:07;;;;;;;3.88;1.98;;;14.30;99.90;;;;;;5057143;28;20036;-71
2022/06/04 06:46:09;;;;;;;4.60;1.80;;;14.30;99.90;;;;;;5074165;28;20040;-70
2022/06/04 06:48:37;;;;;;;3.58;1.90;;;14.40;99.90;;;;;;5057392;28;20535;-70
2022/06/04 06:51:12;;;;;;;3.20;2.00;;;14.50;99.90;;;;;;5057163;28;20045;-70
2022/06/04 06:53:39;;;;;;;2.70;1.65;;;14.60;99.90;;;;;;5074073;28;20079;-70
2022/06/04 06:56:13;;;;;;;2.35;1.40;;;14.70;99.90;;;;;;5073792;28;20086;-72
2022/06/04 06:58:40;;;;;;;2.85;1.92;;;14.90;99.90;;;;;;5073695;28;20048;-70
2022/06/04 07:01:06;;;;;;;3.20;1.80;;;14.80;99.90;;;;;;5073561;28;20036;-70
2022/06/04 07:03:34;;;;;;;3.20;1.70;;;15.00;99.90;;;;;;5073268;28;20481;-70
2022/06/04 07:06:00;;;;;;;2.95;1.90;;;15.00;99.90;;;;;;5073640;28;20036;-70
2022/06/04 07:08:26;;;;;;;2.60;1.58;;;15.10;99.90;;;;;;5073631;28;20091;-69
2022/06/04 07:10:53;;;;;;;2.90;1.70;;;15.10;99.90;;;;;;5056819;28;20126;-69
2022/06/04 07:13:18;;;;;;;3.33;1.73;;;15.30;99.90;;;;;;5073350;28;20406;-69
2022/06/04 07:15:44;;;;;;;2.88;1.75;;;15.40;99.90;;;;;;5073364;28;20037;-70
2022/06/04 07:18:14;;;;;;;4.13;2.25;;;15.50;99.90;;;;;;5073539;28;20044;-71
2022/06/04 07:20:42;;;;;;;3.60;1.58;;;15.50;99.90;;;;;;5073149;28;20094;-70
2022/06/04 07:23:08;;;;;;;4.15;1.90;;;15.50;99.90;;;;;;5073118;28;20052;-70
2022/06/04 07:25:34;;;;;;;2.63;1.80;;;15.60;99.90;;;;;;5073392;28;20476;-71
2022/06/04 07:28:00;;;;;;;3.65;1.73;;;15.60;99.90;;;;;;5056848;28;20040;-70
2022/06/04 07:30:26;;;;;;;7.05;2.38;;;15.60;99.90;;;;;;5056432;28;20045;-70
2022/06/04 07:32:52;;;;;;;2.63;1.52;;;15.60;99.90;;;;;;5072915;28;20407;-70
2022/06/04 07:35:18;;;;;;;4.40;2.15;;;15.90;99.90;;;;;;5072921;28;20048;-71
2022/06/04 07:37:44;;;;;;;3.22;2.13;;;16.00;99.90;;;;;;5073162;28;20113;-70
2022/06/04 07:40:10;;;;;;;4.60;2.22;;;16.10;99.90;;;;;;5056198;28;20096;-70
2022/06/04 07:42:36;;;;;;;4.22;1.90;;;16.00;99.90;;;;;;5056154;28;20385;-70
2022/06/04 07:45:03;;;;;;;2.80;1.98;;;16.10;99.90;;;;;;5056147;28;20047;-70
2022/06/04 07:47:29;;;;;;;5.30;2.42;;;16.30;99.90;;;;;;5072986;28;20040;-71
2022/06/04 07:49:56;;;;;;;3.78;2.00;;;16.30;99.90;;;;;;5072614;28;20123;-71
2022/06/04 07:52:22;;;;;;;3.05;2.10;;;16.50;99.90;;;;;;5055956;28;20102;-69
2022/06/04 07:54:48;;;;;;;2.65;1.70;;;16.50;99.90;;;;;;5072552;28;20036;-70
2022/06/04 07:57:13;;;;;;;3.90;1.90;;;16.40;99.90;;;;;;5072769;28;20036;-70
2022/06/04 07:59:39;;;;;;;3.63;1.92;;;16.30;99.90;;;;;;5072512;28;20068;-70
2022/06/04 08:02:05;;;;;;;3.10;1.88;;;16.20;99.90;;;;;;5072281;28;20431;-71
2022/06/04 08:04:31;;;;;;;2.50;1.60;;;16.20;99.90;;;;;;5072397;28;20439;-70
2022/06/04 08:06:56;;;;;;;3.70;1.77;;;16.30;99.90;;;;;;5055723;28;20366;-70
2022/06/04 08:09:22;;;;;;;3.85;2.13;;;16.50;99.90;;;;;;5072306;28;20070;-70
2022/06/04 08:11:48;;;;;;;3.58;2.10;;;16.70;99.90;;;;;;5055659;28;20506;-71
2022/06/04 08:14:21;;;;;;;5.63;1.95;;;16.80;99.90;;;;;;5055645;28;20039;-71
2022/06/04 08:16:56;;;;;;;2.00;1.48;;;17.00;99.90;;;;;;5071769;28;20047;-71
2022/06/04 08:19:24;;;;;;;2.42;1.48;;;17.00;99.90;;;;;;5072025;28;20077;-70
2022/06/04 08:21:51;;;;;;;3.28;1.85;;;17.10;99.90;;;;;;5071851;28;20796;-69
2022/06/04 08:24:18;;;;;;;3.22;1.88;;;17.20;99.90;;;;;;5072363;28;20040;-69
2022/06/04 08:26:46;;;;;;;3.05;1.80;;;17.20;99.90;;;;;;5072299;28;20037;-70
2022/06/04 08:29:15;;;;;;;1.98;1.42;;;17.20;99.90;;;;;;5071884;28;20078;-71
2022/06/04 08:31:41;;;;;;;3.53;1.80;;;17.20;99.90;;;;;;5055441;28;20136;-71
2022/06/04 08:34:07;;;;;;;3.17;1.50;;;17.20;99.90;;;;;;5072138;28;20466;-71
2022/06/04 08:36:33;;;;;;;4.00;1.88;;;17.20;99.90;;;;;;5072002;28;20049;-70
2022/06/04 08:39:01;;;;;;;3.08;1.98;;;17.20;99.90;;;;;;5072094;28;20399;-69
2022/06/04 08:41:42;;;;;;;4.10;2.00;;;17.40;99.90;;;;;;5071798;28;20044;-70
2022/06/04 08:44:18;;;;;;;2.72;1.73;;;17.70;99.90;;;;;;5072029;28;20604;-71
2022/06/04 08:46:47;;;;;;;3.22;1.45;;;17.90;99.90;;;;;;5071995;28;20056;-71
2022/06/04 08:49:34;;;;;;;2.97;1.63;;;18.00;99.90;;;;;;5071943;28;20484;-70
2022/06/04 08:52:04;;;;;;;4.80;2.20;;;17.70;99.90;;;;;;5054180;28;20048;-70
2022/06/04 08:57:33;;;;;;;2.35;1.60;;;17.70;99.90;;;;;;5057490;28;20060;-70
2022/06/04 09:00:13;;;;;;;3.33;2.03;;;18.00;99.90;;;;;;5071591;28;20055;-72
2022/06/04 09:03:01;;;;;;;4.20;2.33;;;18.00;99.90;;;;;;5071748;28;20036;-71
2022/06/04 09:05:45;;;;;;;3.30;1.77;;;17.90;99.90;;;;;;5054768;28;20083;-71
2022/06/04 09:08:17;;;;;;;1.90;1.27;;;18.30;99.90;;;;;;5071515;28;20047;-69
2022/06/04 09:10:54;;;;;;;2.60;1.73;;;18.30;99.90;;;;;;5071708;28;20032;-71
2022/06/04 09:13:35;;;;;;;2.75;1.83;;;18.30;99.90;;;;;;5054668;28;20068;-70
2022/06/04 09:16:31;;;;;;;4.15;1.77;;;18.30;99.90;;;;;;5071703;28;20076;-70
2022/06/04 09:19:00;;;;;;;2.38;1.67;;;18.40;99.90;;;;;;5067727;28;20052;-70
2022/06/04 09:21:35;;;;;;;2.58;1.73;;;18.10;99.90;;;;;;5054412;28;20117;-71
2022/06/04 09:24:02;;;;;;;2.20;1.52;;;18.50;99.90;;;;;;5071656;28;20055;-70
2022/06/04 09:26:33;;;;;;;3.83;1.92;;;18.30;99.90;;;;;;5071313;28;20037;-70
2022/06/04 09:29:29;;;;;;;3.28;1.98;;;18.40;99.90;;;;;;5073748;28;20043;-70
2022/06/04 09:32:24;;;;;;;5.82;2.15;;;18.80;99.90;;;;;;5075903;28;20045;-71
2022/06/04 09:34:53;;;;;;;2.85;1.45;;;18.60;99.90;;;;;;5058603;28;20051;-71
2022/06/04 09:37:19;;;;;;;2.65;1.60;;;;;;;;;;5058676;28;20044;-70
2022/06/04 09:39:47;;;;;;;3.47;1.40;;;;;;;;;;5075262;28;20515;-71
2022/06/04 09:42:13;;;;;;;3.63;1.65;;;;;;;;;;5075151;28;20072;-70
2022/06/04 09:44:58;;;;;;;1.70;1.33;;;;;;;;;;5075271;28;20141;-68
2022/06/04 09:47:27;;;;;;;3.63;1.55;;;;;;;;;;5075112;28;20039;-71
2022/06/04 09:50:01;;;;;;;2.35;1.73;;;;;;;;;;5075079;28;20071;-70
2022/06/04 09:52:38;;;;;;;3.85;1.73;;;;;;;;;;5075284;28;20391;-71
2022/06/04 09:55:18;;;;;;;2.80;1.67;;;;;;;;;;5074904;28;20123;-71
2022/06/04 09:57:54;;;;;;;2.45;1.38;;;;;;;;;;5074845;28;20036;-69
2022/06/04 10:00:22;;;;;;;3.75;1.55;;;;;;;;;;5074957;28;20391;-69
2022/06/04 10:02:52;;;;;;;4.80;1.75;;;;;;;;;;5075064;28;20052;-70
2022/06/04 10:05:19;;;;;;;2.40;1.30;;;;;;;;;;5075028;28;20036;-71
2022/06/04 10:07:45;;;;;;;3.20;1.70;;;;;;;;;;5074765;28;20615;-71
2022/06/04 10:10:19;;;;;;;2.47;1.27;;;;;;;;;;5074657;28;20434;-72
2022/06/04 10:15:34;;;;;;;2.35;1.58;;;;;;;;;;5074511;28;20056;-70
2022/06/04 10:18:01;;;;;;;3.03;1.67;;;;;;;;;;5074581;28;20036;-70
2022/06/04 10:20:28;;;;;;;2.70;1.67;;;;;;;;;;5074673;28;20115;-69
2022/06/04 10:22:54;;;;;;;3.55;1.50;;;;;;;;;;5057510;28;20098;-70
2022/06/04 10:25:34;;;;;;;2.45;1.45;;;;;;;;;;5058041;28;20509;-69
2022/06/04 10:28:00;;;;;;;3.40;1.70;;;;;;;;;;5058004;28;20391;-70
2022/06/04 10:30:30;;;;;;;3.00;1.58;;;;;;;;;;5074254;28;20049;-71
2022/06/04 10:33:01;;;;;;;2.20;1.63;;;;;;;;;;5074245;28;20051;-69
2022/06/04 10:35:46;;;;;;;2.33;1.70;;;19.60;99.90;;;;;;5075529;28;20037;-68
2022/06/04 10:38:31;;;;;;;2.20;1.52;;;19.60;99.90;;;;;;5074022;28;20040;-68
2022/06/04 10:41:13;;;;;;;3.05;1.42;;;19.70;99.90;;;;;;5074059;28;20075;-69
2022/06/04 10:44:05;;;;;;;3.85;1.38;;;19.80;99.90;;;;;;5057404;28;20040;-68
2022/06/04 10:46:34;;;;;;;3.40;1.55;;;19.80;99.90;;;;;;5057608;28;20510;-68
2022/06/04 10:49:29;;;;;;;1.95;1.30;;;19.70;99.90;;;;;;5074077;28;20051;-68
2022/06/04 10:52:00;;;;;;;2.70;1.33;;;19.80;99.90;;;;;;5075183;28;20115;-68
2022/06/04 10:54:49;;;;;;;2.00;1.30;;;19.60;99.90;;;;;;5073940;28;20061;-68
2022/06/04 10:57:23;;;;;;;2.45;1.67;;;19.50;99.90;;;;;;5074175;28;20052;-68
2022/06/04 11:00:00;;;;;;;2.95;1.50;;;19.60;99.90;;;;;;5075003;28;20047;-68
2022/06/04 11:02:31;;;;;;;2.50;1.38;;;19.60;99.90;;;;;;5073803;28;20476;-68
2022/06/04 11:05:02;;;;;;;2.80;1.67;;;19.60;99.90;;;;;;5073767;28;20048;-68
2022/06/04 11:07:49;;;;;;;4.53;1.52;;;19.40;99.90;;;;;;5073636;28;20040;-68
2022/06/04 11:10:18;;;;;;;2.22;1.40;;;19.40;99.90;;;;;;5073733;28;20047;-68
2022/06/04 11:12:52;;;;;;;4.80;1.90;;;19.30;99.90;;;;;;5073540;28;20417;-68
2022/06/04 11:15:51;;;;;;;1.95;1.30;;;19.30;99.90;;;;;;5073488;28;20090;-67
2022/06/04 11:18:52;;;;;;;2.08;1.40;;;19.40;99.90;;;;;;5073040;28;20056;-68
2022/06/04 11:21:49;;;;;;;4.05;1.45;;;19.30;99.90;;;;;;5047821;28;20055;-68
2022/06/04 11:24:19;;;;;;;2.97;1.52;;;19.30;99.90;;;;;;5074870;28;20112;-67
2022/06/04 11:26:57;;;;;;;3.83;1.58;;;19.10;99.90;;;;;;5073204;28;20090;-68
2022/06/04 11:29:23;;;;;;;2.63;1.33;;;19.10;99.90;;;;;;5073512;28;20068;-68
2022/06/04 11:32:27;;;;;;;1.92;1.27;;;19.00;99.90;;;;;;5056437;28;20043;-68
2022/06/04 11:35:26;;;;;;;1.83;1.13;;;19.10;99.90;;;;;;5067701;28;20052;-68
2022/06/04 11:38:03;;;;;;;2.67;1.52;;;19.10;99.90;;;;;;5073294;28;20526;-68
2022/06/04 11:40:41;;;;;;;5.55;1.27;;;19.30;99.90;;;;;;5074185;28;20041;-68
2022/06/04 11:43:36;;;;;;;1.98;1.23;;;19.40;99.90;;;;;;5073241;28;20079;-68
2022/06/04 11:46:32;;;;;;;2.55;1.20;;;19.40;99.90;;;;;;5072836;28;20048;-68
2022/06/04 11:48:58;;;;;;;1.63;1.10;;;19.40;99.90;;;;;;5073090;28;20037;-68
2022/06/04 11:51:29;;;;;;;3.13;1.20;;;19.70;99.90;;;;;;5072144;28;20047;-67
2022/06/04 11:54:01;;;;;;;2.08;1.23;;;19.70;99.90;;;;;;5072666;28;20154;-67
2022/06/04 11:57:00;;;;;;;0.80;0.77;;;19.60;99.90;;;;;;5072728;28;20041;-68
2022/06/04 11:59:44;;;;;;;1.90;0.80;;;19.60;99.90;;;;;;5067017;28;20045;-68
2022/06/04 12:02:13;;;;;;;2.63;1.00;;;19.70;99.90;;;;;;5055804;28;20040;-67
2022/06/04 12:05:00;;;;;;;1.27;1.00;;;19.70;99.90;;;;;;5074010;28;20047;-68
2022/06/04 12:07:39;;;;;;;1.50;1.10;;;19.80;99.90;;;;;;5055799;28;20040;-67
2022/06/04 12:10:48;;;;;;;2.97;1.30;;;19.80;99.90;;;;;;5055816;28;20075;-69
2022/06/04 12:13:32;;;;;;;2.42;1.60;;;19.60;99.90;;;;;;5035031;28;20392;-68
2022/06/04 12:16:04;;;;;;;1.63;1.23;;;19.60;99.90;;;;;;5035092;28;20540;-68
2022/06/04 12:18:49;;;;;;;1.98;1.20;;;19.80;99.90;;;;;;5058772;28;20067;-68
2022/06/04 12:24:28;;;;;;;2.38;1.20;;;20.00;99.90;;;;;;5072574;28;20040;-69
2022/06/04 12:27:06;;;;;;;1.98;1.27;;;20.00;99.90;;;;;;5072395;28;20048;-69
2022/06/04 12:29:43;;;;;;;3.33;1.25;;;20.10;99.90;;;;;;5071991;28;20045;-68
2022/06/04 12:32:21;;;;;;;2.45;1.33;;;20.20;99.90;;;;;;5071986;28;20040;-69
2022/06/04 12:34:51;;;;;;;1.63;1.13;;;20.10;99.90;;;;;;5072017;28;20445;-69
2022/06/04 12:37:28;;;;;;;1.52;1.20;;;20.20;99.90;;;;;;5071934;28;20408;-68
2022/06/04 12:39:54;;;;;;;3.67;1.27;;;20.20;99.90;;;;;;5071873;28;20076;-69
2022/06/04 12:42:20;;;;;;;1.55;1.27;;;20.20;99.90;;;;;;5071986;28;20053;-68
2022/06/04 12:45:24;;;;;;;1.23;0.93;;;20.10;99.90;;;;;;5071753;28;20454;-69
2022/06/04 12:47:57;;;;;;;3.05;1.23;;;20.10;99.90;;;;;;5072947;28;20041;-68
2022/06/04 12:50:37;;;;;;;1.48;1.08;;;20.10;99.90;;;;;;5071825;28;20119;-69
2022/06/04 12:53:16;;;;;;;2.33;1.33;;;20.10;99.90;;;;;;5071834;28;20044;-68
2022/06/04 12:55:52;;;;;;;4.38;1.33;;;20.20;99.90;;;;;;5071943;28;20047;-68
2022/06/04 12:58:34;;;;;;;1.85;1.02;;;20.20;99.90;;;;;;5071728;28;20044;-68
2022/06/04 13:01:18;;;;;;;1.45;0.90;;;20.20;99.90;;;;;;5071601;28;20036;-69
2022/06/04 13:03:49;;;;;;;3.05;1.35;;;20.20;99.90;;;;;;5071357;28;20036;-68
2022/06/04 13:06:14;;;;;;;1.75;1.05;;;20.20;99.90;;;;;;5071597;28;20040;-67
2022/06/04 13:08:51;;;;;;;3.00;1.35;;;20.40;99.90;;;;;;5071691;28;20663;-68
2022/06/04 13:11:46;;;;;;;3.67;1.83;;;20.40;99.90;;;;;;5071510;28;20450;-69
2022/06/04 13:14:48;;;;;;;3.00;1.50;;;20.30;99.90;;;;;;5071380;28;20044;-70
2022/06/04 13:17:19;;;;;;;3.13;1.30;;;20.50;99.90;;;;;;5017335;28;20041;-68
2022/06/04 13:19:49;;;;;;;2.63;1.20;;;20.50;99.90;;;;;;5064590;28;20048;-70
2022/06/04 13:22:31;;;;;;;2.30;1.53;;;20.50;99.90;;;;;;5071107;28;20048;-70
2022/06/04 13:24:59;;;;;;;3.60;1.38;;;20.50;99.90;;;;;;5071366;28;20365;-70
2022/06/04 13:27:51;;;;;;;1.98;1.00;;;20.50;99.90;;;;;;5071308;28;20446;-69
2022/06/04 13:30:20;;;;;;;2.67;1.30;;;20.50;99.90;;;;;;5054887;28;20546;-70
2022/06/04 13:32:48;;;;;;;2.20;1.10;;;20.50;99.90;;;;;;5071586;28;20035;-69
2022/06/04 13:35:19;;;;;;;2.28;1.10;;;20.60;99.90;;;;;;5054582;28;20048;-70
2022/06/04 13:37:46;;;;;;;3.28;1.48;;;20.70;99.90;;;;;;5054422;28;20037;-70
2022/06/04 13:40:24;;;;;;;2.17;1.23;;;20.80;99.90;;;;;;5054522;28;20549;-70
2022/06/04 13:42:51;;;;;;;2.00;1.27;;;21.00;99.90;;;;;;5071439;28;20047;-69